createdAt,value
2018-12-07T00:00:24.204Z,2.70
2018-12-07T00:05:17.594Z,3.10
2018-12-07T00:10:11.008Z,2.53
2018-12-07T00:15:04.965Z,2.57
2018-12-07T00:19:58.312Z,2.70
2018-12-07T00:24:51.687Z,2.17
2018-12-07T00:29:45.099Z,2.30
2018-12-07T00:34:38.481Z,2.30
2018-12-07T00:39:31.888Z,2.20
2018-12-07T00:44:25.291Z,2.57
2018-12-07T00:49:18.664Z,2.20
2018-12-07T00:54:12.448Z,2.00
2018-12-07T00:59:05.803Z,1.87
2018-12-07T01:03:59.178Z,2.33
2018-12-07T01:08:52.546Z,2.67
2018-12-07T01:13:45.937Z,1.70
2018-12-07T01:18:39.407Z,1.90
2018-12-07T01:23:32.824Z,1.77
2018-12-07T01:28:26.193Z,1.80
2018-12-07T01:33:19.587Z,1.87
2018-12-07T01:38:12.970Z,1.47
2018-12-07T01:43:06.327Z,1.97
2018-12-07T01:47:59.706Z,2.13
2018-12-07T01:52:53.090Z,1.70
2018-12-07T01:57:46.468Z,1.80
2018-12-07T02:02:39.849Z,1.73
2018-12-07T02:07:33.720Z,1.73
2018-12-07T02:12:27.121Z,1.67
2018-12-07T02:17:20.504Z,2.10
2018-12-07T02:22:13.879Z,1.57
2018-12-07T02:27:07.419Z,1.77
2018-12-07T02:32:01.736Z,2.03
2018-12-07T02:36:55.116Z,2.00
2018-12-07T02:41:48.513Z,1.80
2018-12-07T02:46:41.888Z,2.20
2018-12-07T02:51:35.383Z,1.90
2018-12-07T02:56:28.777Z,1.63
2018-12-07T03:01:22.176Z,2.03
2018-12-07T03:06:15.540Z,1.80
2018-12-07T03:11:08.931Z,1.73
2018-12-07T03:16:02.619Z,2.10
2018-12-07T03:20:56.070Z,2.20
2018-12-07T03:25:49.478Z,1.90
2018-12-07T03:30:42.843Z,1.93
2018-12-07T03:35:36.300Z,1.93
2018-12-07T03:40:29.678Z,1.97
2018-12-07T03:45:23.061Z,1.77
2018-12-07T03:50:16.431Z,2.10
2018-12-07T03:55:09.821Z,1.73
2018-12-07T04:00:03.250Z,1.50
2018-12-07T04:04:56.678Z,1.60
2018-12-07T04:09:50.062Z,1.50
2018-12-07T04:14:43.503Z,1.80
2018-12-07T04:19:36.886Z,1.90
2018-12-07T04:24:30.286Z,1.97
2018-12-07T04:29:23.653Z,1.70
2018-12-07T04:34:17.441Z,1.43
2018-12-07T04:39:10.846Z,2.30
2018-12-07T04:44:04.246Z,1.67
2018-12-07T04:48:57.615Z,2.27
2018-12-07T04:53:51.000Z,1.80
2018-12-07T04:58:44.379Z,1.93
2018-12-07T05:03:37.824Z,1.67
2018-12-07T05:08:31.191Z,1.57
2018-12-07T05:13:24.573Z,1.43
2018-12-07T05:18:18.015Z,1.80
2018-12-07T05:23:11.393Z,1.50
2018-12-07T05:28:04.789Z,1.43
2018-12-07T05:32:58.205Z,0.97
2018-12-07T05:37:51.598Z,1.53
2018-12-07T05:42:45.009Z,1.30
2018-12-07T05:47:38.409Z,1.40
2018-12-07T05:52:31.795Z,1.13
2018-12-07T05:57:25.210Z,1.00
2018-12-07T06:02:18.955Z,1.13
2018-12-07T06:07:12.333Z,1.70
2018-12-07T06:12:05.717Z,1.30
2018-12-07T06:16:59.103Z,1.20
2018-12-07T06:21:52.488Z,1.30
2018-12-07T06:26:45.868Z,1.20
2018-12-07T06:31:39.826Z,1.30
2018-12-07T06:36:33.190Z,1.20
2018-12-07T06:41:26.604Z,1.00
2018-12-07T06:46:19.982Z,0.90
2018-12-07T06:51:13.365Z,1.20
2018-12-07T06:56:06.754Z,1.07
2018-12-07T07:01:00.165Z,0.90
2018-12-07T07:05:55.276Z,0.90
2018-12-07T07:10:48.661Z,0.93
2018-12-07T07:15:42.130Z,1.07
2018-12-07T07:20:35.545Z,0.77
2018-12-07T07:25:28.930Z,1.40
2018-12-07T07:30:22.333Z,1.00
2018-12-07T07:35:15.728Z,1.10
2018-12-07T07:40:09.115Z,0.80
2018-12-07T07:45:02.692Z,1.07
2018-12-07T07:49:56.103Z,1.20
2018-12-07T07:54:49.472Z,1.00
2018-12-07T07:59:42.863Z,1.20
2018-12-07T08:04:36.256Z,1.00
2018-12-07T08:09:29.663Z,1.30
2018-12-07T08:14:23.138Z,1.10
2018-12-07T08:19:16.537Z,1.00
2018-12-07T08:24:09.950Z,1.20
2018-12-07T08:29:03.622Z,1.20
2018-12-07T08:33:57.072Z,1.10
2018-12-07T08:38:50.559Z,1.40
2018-12-07T08:43:45.240Z,1.10
2018-12-07T08:48:38.610Z,1.33
2018-12-07T08:53:32.017Z,1.03
2018-12-07T08:58:26.358Z,0.97
2018-12-07T09:03:20.239Z,1.23
2018-12-07T09:08:15.397Z,0.93
2018-12-07T09:13:08.013Z,1.00
2018-12-07T09:18:01.888Z,1.30
2018-12-07T09:22:55.787Z,1.13
2018-12-07T09:27:50.708Z,0.97
2018-12-07T09:32:44.659Z,0.90
2018-12-07T09:37:38.482Z,0.90
2018-12-07T09:42:31.909Z,1.00
2018-12-07T09:47:25.330Z,1.10
2018-12-07T09:52:18.723Z,0.97
2018-12-07T09:57:12.122Z,1.00
2018-12-07T10:02:05.522Z,1.37
2018-12-07T10:06:58.920Z,1.30
2018-12-07T10:11:52.363Z,0.90
2018-12-07T10:16:45.758Z,0.93
2018-12-07T10:21:39.175Z,0.90
2018-12-07T10:26:32.552Z,0.90
2018-12-07T10:31:25.926Z,0.80
2018-12-07T10:36:19.320Z,0.83
2018-12-07T10:41:12.720Z,1.10
2018-12-07T10:46:06.095Z,1.00
2018-12-07T10:50:59.494Z,0.90
2018-12-07T10:55:52.887Z,0.70
2018-12-07T11:01:04.058Z,0.90
2018-12-07T11:06:15.564Z,0.73
2018-12-07T11:11:26.741Z,0.70
2018-12-07T11:16:37.877Z,0.90
2018-12-07T11:21:48.813Z,1.07
2018-12-07T11:26:59.945Z,0.80
2018-12-07T11:32:13.508Z,0.70
2018-12-07T11:37:06.883Z,0.70
2018-12-07T11:42:00.259Z,0.90
2018-12-07T11:46:53.673Z,0.73
2018-12-07T11:51:47.053Z,0.80
2018-12-07T11:56:40.428Z,0.97
2018-12-07T12:01:33.828Z,0.70
2018-12-07T12:06:27.217Z,0.90
2018-12-07T12:11:20.644Z,1.00
2018-12-07T12:16:14.065Z,0.90
2018-12-07T12:21:07.492Z,0.80
2018-12-07T12:26:00.923Z,0.70
2018-12-07T12:30:54.307Z,1.17
2018-12-07T12:35:47.711Z,0.90
2018-12-07T12:40:41.143Z,1.10
2018-12-07T12:45:35.349Z,0.87
2018-12-07T12:50:38.324Z,0.90
2018-12-07T12:55:32.399Z,0.93
2018-12-07T13:00:26.215Z,0.90
2018-12-07T13:05:20.116Z,0.97
2018-12-07T13:10:14.017Z,1.00
2018-12-07T13:15:07.926Z,0.77
2018-12-07T13:20:01.817Z,0.90
2018-12-07T13:24:55.815Z,0.87
2018-12-07T13:29:49.607Z,1.00
2018-12-07T13:34:43.547Z,0.90
2018-12-07T13:39:37.350Z,0.90
2018-12-07T13:50:43.095Z,0.90
2018-12-07T13:55:36.861Z,0.77
2018-12-07T14:00:30.273Z,0.87
2018-12-07T14:05:23.675Z,0.80
2018-12-07T14:10:17.143Z,0.80
2018-12-07T14:15:10.656Z,0.70
2018-12-07T14:20:04.458Z,0.67
2018-12-07T14:24:57.823Z,0.80
2018-12-07T14:29:51.265Z,0.73
2018-12-07T14:34:44.689Z,0.70
2018-12-07T14:39:38.062Z,0.77
2018-12-07T14:50:37.632Z,0.73
2018-12-07T14:55:31.067Z,0.80
2018-12-07T15:00:24.377Z,0.70
2018-12-07T15:05:17.868Z,0.70
2018-12-07T15:10:11.108Z,0.70
2018-12-07T15:15:04.780Z,0.80
2018-12-07T15:19:58.496Z,0.70
2018-12-07T15:24:51.832Z,0.70
2018-12-07T15:29:45.306Z,0.57
2018-12-07T15:34:38.650Z,1.00
2018-12-07T15:39:31.883Z,0.70
2018-12-07T15:44:25.281Z,0.90
2018-12-07T15:49:18.742Z,0.90
2018-12-07T15:54:12.330Z,0.90
2018-12-07T15:59:05.625Z,0.90
2018-12-07T16:03:59.090Z,0.77
2018-12-07T16:08:52.509Z,0.97
2018-12-07T16:13:45.994Z,1.30
2018-12-07T16:18:39.612Z,0.67
2018-12-07T16:23:32.827Z,0.80
2018-12-07T16:28:26.228Z,1.03
2018-12-07T16:33:19.635Z,0.80
2018-12-07T16:38:13.440Z,0.77
2018-12-07T16:43:06.832Z,0.93
2018-12-07T16:48:00.409Z,0.97
2018-12-07T16:52:54.782Z,0.80
2018-12-07T16:57:48.656Z,0.77
2018-12-07T17:02:42.358Z,0.90
2018-12-07T17:07:35.711Z,0.83
2018-12-07T17:12:28.961Z,1.17
2018-12-07T17:17:22.500Z,1.20
2018-12-07T17:22:15.899Z,1.10
2018-12-07T17:27:09.414Z,1.10
2018-12-07T17:32:02.791Z,1.37
2018-12-07T17:36:56.091Z,1.00
2018-12-07T17:41:49.687Z,1.07
2018-12-07T17:46:43.091Z,1.20
2018-12-07T17:51:36.565Z,1.20
2018-12-07T17:56:30.036Z,1.10
2018-12-07T18:01:23.339Z,1.40
2018-12-07T18:06:17.037Z,1.40
2018-12-07T18:11:10.418Z,1.30
2018-12-07T18:16:04.719Z,1.43
2018-12-07T18:20:58.005Z,1.40
2018-12-07T18:25:51.578Z,1.20
2018-12-07T18:30:44.856Z,0.90
2018-12-07T18:35:38.359Z,1.43
2018-12-07T18:40:31.622Z,1.40
2018-12-07T18:45:25.047Z,1.50
2018-12-07T18:50:18.777Z,1.70
2018-12-07T18:55:12.399Z,1.50
2018-12-07T19:00:06.369Z,1.50
2018-12-07T19:04:59.530Z,1.30
2018-12-07T19:09:53.097Z,1.43
2018-12-07T19:14:46.445Z,1.70
2018-12-07T19:19:39.825Z,1.40
2018-12-07T19:24:33.347Z,1.30
2018-12-07T19:29:26.612Z,1.27
2018-12-07T19:34:20.093Z,1.50
2018-12-07T19:39:13.671Z,1.40
2018-12-07T19:44:06.899Z,1.63
2018-12-07T19:49:00.466Z,1.70
2018-12-07T19:59:59.571Z,1.43
2018-12-07T20:04:53.015Z,1.70
2018-12-07T20:15:46.272Z,1.60
2018-12-07T20:20:39.651Z,1.43
2018-12-07T20:25:33.258Z,1.57
2018-12-07T20:30:26.561Z,1.77
2018-12-07T20:35:19.986Z,1.40
2018-12-07T20:40:13.682Z,1.30
2018-12-07T20:45:07.071Z,1.53
2018-12-07T20:50:00.617Z,1.80
2018-12-07T21:01:00.144Z,1.73
2018-12-07T21:07:05.640Z,1.70
2018-12-07T21:12:02.858Z,1.93
2018-12-07T21:17:05.629Z,2.10
2018-12-07T21:21:59.429Z,1.63
2018-12-07T21:26:52.856Z,1.57
2018-12-07T21:31:46.329Z,1.40
2018-12-07T21:36:46.616Z,1.77
2018-12-07T21:41:39.912Z,1.60
2018-12-07T21:46:33.484Z,1.23
2018-12-07T21:51:52.574Z,1.53
2018-12-07T22:02:36.412Z,1.60
2018-12-07T22:07:29.760Z,1.80
2018-12-07T22:12:23.301Z,1.50
2018-12-07T22:17:17.362Z,1.60
2018-12-07T22:22:10.934Z,1.40
2018-12-07T22:27:04.454Z,2.00
2018-12-07T22:31:57.542Z,1.60
2018-12-07T22:36:51.046Z,2.07
2018-12-07T22:41:44.479Z,1.47
2018-12-07T22:46:37.750Z,2.03
2018-12-07T22:51:31.119Z,1.47
2018-12-07T22:56:24.509Z,1.53
2018-12-07T23:01:17.907Z,2.03
2018-12-07T23:06:11.301Z,2.13
2018-12-07T23:11:04.663Z,1.77
2018-12-07T23:15:58.069Z,1.60
2018-12-07T23:20:51.474Z,2.00
2018-12-07T23:25:44.888Z,2.00
2018-12-07T23:30:38.262Z,1.60
2018-12-07T23:35:31.777Z,1.67
2018-12-07T23:40:25.176Z,1.67
2018-12-07T23:45:18.558Z,1.87
2018-12-07T23:50:11.948Z,1.50
2018-12-07T23:55:05.345Z,2.00
2018-12-07T23:59:58.713Z,1.60
